Detall de PIREP

Printer-friendly versionPDF version

[2014/04/07 16:35:00]
Flight IATA:CT3208
Pilot Number:012
Company ICAO:CAT
Aircraft Type:B763/F
PAX:182
Departing Airport: LEPA
Destination Airport: EBBR
Alternate Airport:EHAM
Online: VATSIM
Route:MEROS UN853 LUMAS UT16 TINOT UN854 MTL UN854 ETREK UM976 KOPOR UN874 CMB UZ373 ARVOL
Flight Level:F360
No Slew and time accel
No pause
Crash detect
Detect pilot in Cockpit between each 30 and 45 minutes
16:35 Zero fuel Weight: 258364 Lbs, Fuel Weight: 40141 Lbs
16:35 VATSIM:LEPA 071600Z 24009KT 210V270 9999 FEW005 17/13 Q1020 NOSIG
16:35 VATSIM:EBBR 071620Z 18012KT 9999 FEW045 20/10 Q1008 NOSIG
16:40 Parking Brakes off
16:50 Take-off
16:50 Take off Weight: 295383 Lbs
16:50 Wind: 247º @ 009 Knots Heading: 238º
16:50 POS N39º 33´ 19´´ E002º 43´ 40´´
16:50 Gear Up: 178 Knots
16:50 Flaps:2 at 178 Knots
16:51 Flaps:1 at 196 Knots
16:51 Flaps:0 at 221 Knots
17:03 TOC
17:03 Fuel Weight: 31105 Lb
17:04 TOD
17:04 Fuel Weight: 31022 Lb
17:04 TOC
17:04 Fuel Weight: 31010 Lb
17:05 Wind:305º@036 Knots Heading: 027º Ground Speed: 463 Knots Altitude 36171 ft
17:20 Wind:288º@040 Knots Heading: 018º Ground Speed: 466 Knots Altitude 36141 ft
17:35 Wind:270º@045 Knots Heading: 335º Ground Speed: 447 Knots Altitude 36131 ft
17:50 Wind:250º@054 Knots Heading: 344º Ground Speed: 480 Knots Altitude 36036 ft
18:05 Wind:252º@068 Knots Heading: 328º Ground Speed: 456 Knots Altitude 35961 ft
18:12 TOD
18:12 Fuel Weight: 20039 Lb
18:12 TOC
18:12 Fuel Weight: 20031 Lb
18:20 Wind:227º@078 Knots Heading: 322º Ground Speed: 469 Knots Altitude 35892 ft
18:23 TOD
18:23 Fuel Weight: 18298 Lb
18:35 Wind:217º@048 Knots Heading: 075º Ground Speed: 428 Knots Altitude 15708 ft
18:40 Flaps:1 at 254 Knots
18:41 Flaps:2 at 237 Knots
18:45 Flaps:3 at 178 Knots
18:47 Gear Down: 168 Knots
18:48 Flaps:4 at 160 Knots
18:48 Flaps:5 at 164 Knots
18:50 Wind:189º@010 Knots Heading: 247º Ground Speed: 157 Knots Altitude 2319 ft
18:50 Flaps:6 at 152 Knots
18:52 TouchDown:Rate -196 ft/min Speed: 129 Knots
18:52 VATSIM:EBBR 071820Z 20008KT 180V240 7000 TSRA SCT020CB 19/10 Q1008 TEMPO 23025G35KT 2500 TSRA BKN014CB
18:52 Land
18:52 Wind:188º@010 Knots
18:52 Heading: 248º
18:52 Flight Duration: 02:02
18:52 Landing Weight: 272871 Lbs
18:52 POS N50º 53´ 36´´ E004º 29´ 56´´
18:54 Parking brakes on
18:54 Block to Block Duration: 02:14
18:54 Final Fuel: 14241 Lbls
18:54 Spent Fuel: 25899 Lbls
18:54 Flight Length: 871 NM
18:54 TOD Land Length: 163 NM

Exportar CSV

Powered by Drupal - Modified by Danger4k